Current Conditions

Updated: 04-Mar-2015 11:59pm  
Summary / Temperature Wind Rain






Feels like: 47°F

1-hour difference
1.2°F 1.2°F colder than last hour.

24-hour difference
1.6°F1.6°F warmer than yesterday at this time.

  Today Yesterday
High: 71.8°F
2:14pm
65.8°F
3:37pm
Low: 42.3°F
6:37am
37.8°F
6:57am
Calm N
0.0
Gust:  0.0 mph
0 Beaufort - Calm

Today: 6.0 - 2:36pm
Month: 8.1 mph - Mar 3
Rain Today: 0.00 in
Current Rate (/hr): 0.00 in
Max Rate (/hr):
Rain Yesterday: 0.00 in
Storm Rain: 0.00 in
This Month: 0.13 in
Season Total: 3.63 in
Last Rain Event: 2 days ago
Humidity / Barometer Sun / Moon
Humidity: 87 Increased 2.0% in the last hour.
Dew Point: 42.9°F Decreased 0.6°F in the last hour.
Barometer: 30.223 inHg  
Baro Trend: Steady
Sunrise: 6:21am
Sunset: 5:53pm
Moonrise: 5:21pm
Moonset: 6:10am
Sky Conditions UV Index
Sky: Clear
Visibility: 10 miles
Clouds: None
Current: 0.0  None 
Thursday: 4.5  Moderate 
Friday: 4.8  Moderate 
Air Quality Fire Danger
PM 2.5 Moderate
Ozone Good
Current: 0  Low 

Local Alerts Local Forecast
Local NWS Alerts
Tonight

Clear

Low 40
Thu

Sunny

High 72
Thu night

Clear

Low 41
Fri

Sunny

High 73
Fri night

Clear

Low 42
Sat

Sunny

High 76
Sat night

Clear

Low 42

Local Radar Local Satellite Neighborhood Cam Sky Cam
Local Radar Local Satellite Neighborhood Cam Sky Cam


Nearby METAR Reports

KPTV - Porterville, California, USA
Distance from station: SSW 4mi, 7km
Updated: Wed, 04-Mar-2015 11:35pm PST
Clear
Clear
 Wind from ESE
Wind: ESE 7 mph , 11 km/h
Temperature: 45°F , 7°C
Wind Chill: 41°F , 5°C
Dew Point: 37°F , 3°C
Humidity: 76%
Barometer: 30.22 inHg , 1023.4 hPa
Clouds: Clear
Visibility: 10 miles , 16 km
2015/03/05 07:35 KPTV 050735Z AUTO 11006KT 10SM CLR 07/03 A3022 RMK AO1
KVIS - Visalia, California, USA
Distance from station: NW 27mi, 43km
Updated: Wed, 04-Mar-2015 11:35pm PST
Clear
Clear
 Wind from ESE
Wind: ESE 3 mph , 6 km/h
Temperature: 46°F , 8°C
Dew Point: 37°F , 3°C
Humidity: 71%
Barometer: 30.23 inHg , 1023.7 hPa
Clouds: Clear
Visibility: 10 miles , 16 km
2015/03/05 07:35 KVIS 050735Z AUTO 11003KT 10SM CLR 08/03 A3023 RMK AO1

Metar display script from Saratoga-Weather.org



Visitor Map

Locations of visitors to this page